EDT,Max TemperatureF,Mean TemperatureF,Min TemperatureF,Max Dew PointF,MeanDew PointF,Min DewpointF,Max Humidity, Mean Humidity, Min Humidity, Max Sea Level PressureIn, Mean Sea Level PressureIn, Min Sea Level PressureIn, Max VisibilityMiles, Mean VisibilityMiles, Min VisibilityMiles, Max Wind SpeedMPH, Mean Wind SpeedMPH, Max Gust SpeedMPH,PrecipitationIn, CloudCover, Events, WindDirDegrees
2012-9-1,89,80,73,74,72,69,95,81,55,30.25,30.18,30.11,10.0,10.0,10.0,9,2,16,0.00,1,Rain,163
2012-9-2,89,79,69,73,70,67,99,81,52,30.12,30.04,29.97,10.0,9.8,1.8,10,3,34,0.00,2,Rain,164
2012-9-3,82,76,70,72,69,68,95,82,64,30.01,29.98,29.96,10.0,10.0,7.0,12,6,20,0.00,7,Rain,176
2012-9-4,84,76,68,74,71,68,99,87,64,30.01,29.97,29.93,10.0,9.6,0.5,16,1,22,0.00,6,Fog-Rain,202
2012-9-5,87,78,69,73,71,68,100,87,58,29.99,29.94,29.89,10.0,7.6,0.2,7,2,,0.00,5,Fog-Rain,235
2012-9-6,81,74,68,70,69,67,100,86,66,30.07,30.02,29.94,10.0,8.4,0.2,7,2,,0.00,5,Fog,262
2012-9-7,87,76,65,70,67,64,100,79,47,30.07,29.99,29.84,10.0,7.0,0.2,8,2,,0.00,3,Fog,191
2012-9-8,76,66,57,68,62,56,97,85,70,30.00,29.88,29.79,10.0,9.4,2.5,12,6,21,0.00,4,Rain,248
2012-9-9,74,64,54,58,55,51,100,78,46,30.10,30.04,29.98,10.0,7.0,0.2,7,2,,0.00,4,Fog,234
2012-9-10,73,64,54,57,53,49,100,75,44,30.26,30.20,30.11,10.0,9.1,0.8,9,2,,0.00,2,,36
2012-9-11,77,62,47,58,53,47,100,72,43,30.35,30.29,30.26,10.0,9.8,1.5,5,2,,0.00,0,,46
2012-9-12,82,70,58,62,59,57,97,75,44,30.40,30.33,30.30,10.0,10.0,10.0,5,1,,0.00,1,,170
2012-9-13,80,69,59,62,60,57,96,73,47,30.41,30.34,30.29,10.0,10.0,10.0,6,2,,0.00,1,,138
2012-9-14,81,70,58,64,60,58,99,77,49,30.32,30.28,30.24,10.0,9.2,0.5,9,1,,0.00,2,Fog,330
2012-9-15,74,66,57,59,54,48,90,70,45,30.36,30.29,30.22,10.0,10.0,10.0,8,3,,0.00,4,,23
2012-9-16,76,65,55,59,54,49,92,69,46,30.23,30.17,30.11,10.0,10.0,10.0,6,2,,0.00,2,,26
2012-9-17,68,63,58,67,63,58,99,94,81,30.13,30.04,29.88,10.0,7.1,0.8,6,1,,0.00,7,Rain,148
2012-9-18,66,62,56,66,62,52,99,93,80,30.04,29.82,29.71,10.0,9.3,2.5,15,5,29,0.00,7,Rain,257
2012-9-19,65,56,48,52,46,42,97,71,44,30.24,30.17,30.05,10.0,10.0,10.0,7,2,,0.00,1,,18
2012-9-20,77,61,45,57,52,46,99,72,47,30.17,30.12,30.05,10.0,10.0,7.0,10,3,16,0.00,0,,208
2012-9-21,78,69,60,59,57,54,85,66,46,30.11,30.04,29.93,10.0,10.0,10.0,10,5,,0.00,3,,207
2012-9-22,76,65,53,58,51,37,68,54,38,30.19,30.01,29.93,10.0,10.0,10.0,17,9,26,0.00,4,,259
2012-9-23,63,50,38,44,38,32,93,60,38,30.29,30.25,30.19,10.0,10.0,10.0,7,2,,0.00,2,,350
2012-9-24,66,53,40,46,42,37,100,70,35,30.35,30.27,30.17,10.0,9.1,0.2,7,1,,0.00,1,Fog,201
2012-9-25,62,54,47,58,50,43,100,82,54,30.26,30.16,30.09,10.0,9.4,1.0,22,3,29,0.00,4,Rain,175
2012-9-26,81,68,56,62,59,55,97,73,50,30.23,30.18,30.13,10.0,10.0,10.0,12,4,17,0.00,1,,206
2012-9-27,75,68,61,65,62,58,93,79,65,30.25,30.21,30.16,10.0,10.0,10.0,10,2,,0.00,4,Rain,227
2012-9-28,65,63,60,65,63,60,100,98,93,30.18,30.14,30.08,10.0,6.4,0.5,7,2,18,0.00,8,Fog-Rain,236
2012-9-29,69,61,52,60,56,49,100,84,53,30.12,30.07,30.01,10.0,7.3,0.5,8,2,,0.00,5,Fog,22
2012-9-30,71,60,48,56,52,48,100,79,45,30.03,29.95,29.89,10.0,7.9,0.2,8,3,9,0.00,2,Fog,229